Latest Coastal Weather Observations for Hamilton Island

IDQ60701

Issued at 11:55 pm EST Wednesday 22 October 2014 (issued every 10 minutes, with the page automatically refreshed every 10 minutes)

About coastal observations | Map of coastal stations | Coastal observations for QLD | Marine services | Other Formats
Station Details ID: 033106 Name: HAMILTON ISLAND AIRPORT Lat: -20.37 Lon: 148.95 Height: 58.66 m
Data from the previous 72 hours. | See also: Recent months at Hamilton Island
Date/Time
EST
Temp

°C
Wind Pressure Rain
since 9am
mm
Weather Cloud Vis
km
Sea
Height
m
Swell
Dir
 
Speed
knots
Gust
knots
hPa Trend Height
m
Period
s
Dir
22/11:30pm 22.1 ESE 18 22 1020.9 - 0.0 - Partly cloudy 10 - - - -
22/11:00pm 22.1 ESE 19 22 1020.9 - 0.0 - Partly cloudy 10 - - - -
22/10:30pm 22.0 ESE 18 22 1020.9 - 0.0 - Partly cloudy 10 - - - -
22/10:00pm 22.1 ESE 22 26 1020.8 - 0.0 - Partly cloudy 10 - - - -
22/09:30pm 22.2 SE 22 27 1020.7 - 0.0 - - 10 - - - -
22/09:00pm 22.2 ESE 22 26 1020.3 - 0.0 - - 10 - - - -
22/08:30pm 22.1 ESE 21 23 1020.6 - 0.0 - - 10 - - - -
22/08:00pm 22.1 ESE 21 25 1020.3 - 0.0 - Partly cloudy 10 - - - -
22/07:30pm 22.3 SE 22 26 1019.9 - 0.0 - Partly cloudy 10 - - - -
22/07:00pm 22.4 SE 24 27 1019.8 - 0.0 - Partly cloudy 10 - - - -
22/06:30pm 22.5 ESE 22 25 1019.7 - 0.0 - Partly cloudy 10 - - - -
22/06:00pm 22.6 ESE 22 25 1019.2 - 0.0 - Mostly clear 10 - - - -
22/05:30pm 22.8 ESE 23 27 1019.0 - 0.0 - - 10 - - - -
22/05:00pm 23.1 SE 21 24 1019.0 - 0.0 - Partly cloudy 10 - - - -
22/04:30pm 23.9 SE 19 24 1018.8 - 0.0 - Partly cloudy 10 - - - -
22/04:00pm 24.2 ESE 18 21 1018.7 - 0.0 - Partly cloudy 10 - - - -
22/03:30pm 24.1 ESE 17 22 1018.6 - 0.0 - Partly cloudy 10 - - - -
22/03:00pm 23.9 ESE 19 22 1018.5 - 0.0 - Cloudy 10 - - - -
22/02:30pm 23.9 ESE 17 21 1018.9 - 0.0 - Partly cloudy 10 - - - -
22/02:00pm 23.9 ESE 18 23 1019.4 - 0.0 - Partly cloudy 10 - - - -
22/01:30pm 24.3 ESE 19 23 1019.6 - 0.0 - Partly cloudy 10 - - - -
22/01:00pm 23.9 ESE 19 22 1019.9 - 0.0 - Partly cloudy 10 - - - -
22/12:30pm 25.1 SE 19 22 1020.3 - 0.0 - Partly cloudy 10 - - - -
22/12:00pm 25.6 SE 22 26 1020.5 - 0.0 - Mostly clear 10 - - - -
22/11:30am 25.5 SE 22 26 1021.0 - 0.0 - - 10 - - - -
22/11:00am 26.0 SE 22 26 1021.3 - 0.0 - - 10 - - - -
22/10:30am 25.6 SE 21 24 1021.5 - 0.0 - - 10 - - - -
22/10:00am 25.4 SE 21 24 1021.5 - 0.0 - - 10 - - - -
22/09:30am 25.0 ESE 22 25 1021.7 - 0.0 - - 10 - - - -
22/09:00am 24.8 SE 24 26 1021.4 - 0.2 - Mostly clear 10 - - - -
22/08:30am 24.6 ESE 22 26 1021.5 - 0.2 - - 10 - - - -
22/08:00am 23.9 ESE 24 27 1021.4 - 0.2 - Partly cloudy 10 - - - -
22/07:30am 23.7 ESE 28 32 1021.1 - 0.2 - Partly cloudy 10 - - - -
22/07:00am 23.2 SE 27 31 1020.8 - 0.2 - Partly cloudy 10 - - - -
22/06:30am 22.7 SE 26 29 1020.6 - 0.2 - Partly cloudy 10 - - - -
22/06:00am 22.4 ESE 27 32 1019.8 - 0.2 - Cloudy 10 - - - -
22/05:30am 22.3 SE 27 32 1019.6 - 0.2 - Partly cloudy 10 - - - -
22/05:00am 22.1 SE 27 33 1019.5 - 0.2 - Partly cloudy 10 - - - -
22/04:30am 22.2 SE 27 33 1019.4 - 0.2 - Partly cloudy 10 - - - -
22/04:00am 22.2 SE 25 31 1019.4 - 0.2 - Partly cloudy 10 - - - -
22/03:30am 22.3 SE 26 30 1019.4 - 0.2 - Partly cloudy 10 - - - -
22/03:00am 22.4 SE 27 31 1019.2 - 0.2 - Cloudy 10 - - - -
22/02:30am 22.4 SE 25 32 1019.7 - 0.2 - Partly cloudy 10 - - - -
22/02:19am 22.2 ESE 22 32 1019.5 - 0.2 - Partly cloudy 10 - - - -
22/02:00am 22.5 SE 26 30 1019.8 - 0.2 - Partly cloudy 10 - - - -
22/01:30am 22.2 SE 26 31 1020.1 - 0.2 - Partly cloudy 10 - - - -
22/01:00am 22.2 SE 23 27 1020.6 - 0.2 - Partly cloudy 10 - - - -
22/12:30am 22.2 SE 25 32 1021.0 - 0.2 - Partly cloudy 10 - - - -
22/12:00am 22.2 SE 27 31 1021.2 - 0.2 - Cloudy 8 - - - -
 
Date/Time
EST
Temp

°C
Wind Pressure Rain
since 9am
mm
Weather Cloud Vis
km
Sea
Height
m
Swell
Dir
 
Speed
knots
Gust
knots
hPa Trend Height
m
Period
s
Dir
21/11:30pm 22.0 SE 23 27 1021.8 - 0.2 - Partly cloudy 10 - - - -
21/11:00pm 21.2 ESE 27 35 1021.9 - 0.2 - Partly cloudy 8 - - - -
21/10:30pm 22.2 SE 24 29 1022.0 - 0.2 - Partly cloudy 10 - - - -
21/10:00pm 21.9 SE 30 36 1022.0 - 0.2 - Partly cloudy 10 - - - -
21/09:52pm 22.4 SE 25 35 1021.9 - 0.2 - Partly cloudy 10 - - - -
21/09:30pm 22.4 SE 26 30 1022.0 - 0.2 - Partly cloudy 10 - - - -
21/09:00pm 22.4 SE 26 34 1021.7 - 0.2 - Mostly clear 10 - - - -
21/08:30pm 22.4 SE 26 32 1021.7 - 0.2 - Partly cloudy 10 - - - -
21/08:00pm 22.6 SE 25 28 1021.6 - 0.2 - Partly cloudy 10 - - - -
21/07:30pm 22.4 SE 25 30 1021.3 - 0.2 - Partly cloudy - - - - -
21/07:00pm 22.4 SE 23 29 1021.2 - 0.2 - Partly cloudy 10 - - - -
21/06:30pm 22.5 SE 24 30 1021.0 - 0.2 - Partly cloudy 10 - - - -
21/06:00pm 22.7 SE 24 31 1020.4 - 0.2 - Mostly clear 10 - - - -
21/05:30pm 22.7 SE 26 31 1020.4 - 0.2 - Partly cloudy 10 - - - -
21/05:00pm 23.0 SE 26 31 1020.2 - 0.2 - Partly cloudy 10 - - - -
21/04:30pm 23.7 SE 26 31 1020.0 - 0.2 - Partly cloudy 10 - - - -
21/04:00pm 23.7 SE 23 28 1019.7 - 0.2 - Partly cloudy 10 - - - -
21/03:30pm 23.7 SE 26 30 1019.8 - 0.2 - Partly cloudy 10 - - - -
21/03:00pm 23.6 SE 22 27 1019.7 - 0.2 - Cloudy 10 - - - -
21/02:30pm 22.7 SE 22 27 1020.3 - 0.2 - Partly cloudy 10 - - - -
21/02:00pm 22.2 SE 18 21 1020.6 - 0.2 - Partly cloudy 10 - - - -
21/01:30pm 25.1 ESE 20 24 1020.8 - 0.0 - Partly cloudy 10 - - - -
21/01:00pm 25.3 ESE 24 28 1021.1 - 0.0 - Partly cloudy 10 - - - -
21/12:30pm 24.9 ESE 24 28 1021.4 - 0.0 - Partly cloudy 10 - - - -
21/12:00pm 25.1 SE 25 28 1021.3 - 0.0 - Cloudy 10 - - - -
21/11:30am 25.0 SE 25 29 1022.0 - 0.0 - Partly cloudy 10 - - - -
21/11:00am 25.1 SE 25 29 1022.2 - 0.0 - Partly cloudy 10 - - - -
21/10:30am 25.7 SE 22 26 1022.2 - 0.0 - Partly cloudy 10 - - - -
21/10:00am 25.0 ESE 21 25 1022.2 - 0.0 - Partly cloudy 10 - - - -
21/09:30am 25.4 SE 23 26 1022.3 - 0.0 - Partly cloudy 10 - - - -
21/09:00am 25.0 SE 22 28 1021.8 - 0.0 - - 10 - - - -
21/08:30am 24.7 ESE 22 26 1021.9 - 0.0 - Partly cloudy 10 - - - -
21/08:00am 24.3 ESE 23 29 1021.7 - 0.0 - Partly cloudy 10 - - - -
21/07:30am 23.7 ESE 20 24 1021.6 - 0.0 - Partly cloudy 10 - - - -
21/07:00am 23.8 ESE 28 33 1021.0 - 0.0 - Partly cloudy 10 - - - -
21/06:30am 22.8 ESE 26 31 1020.7 - 0.0 - Partly cloudy 10 - - - -
21/06:00am 23.0 ESE 24 28 1019.8 - 0.0 - Mostly cloudy 10 - - - -
21/05:30am 22.6 ESE 24 29 1019.9 - 0.0 - Partly cloudy 10 - - - -
21/05:00am 22.3 ESE 23 27 1019.5 - 0.0 - Partly cloudy 10 - - - -
21/04:30am 22.1 ESE 23 28 1019.1 - 0.0 - Partly cloudy 10 - - - -
21/04:00am 22.3 ESE 22 27 1019.1 - 0.0 - - 10 - - - -
21/03:30am 22.0 ESE 21 26 1019.0 - 0.0 - Partly cloudy 10 - - - -
21/03:00am 22.1 ESE 23 27 1018.9 - 0.0 - Mostly cloudy 10 - - - -
21/02:30am 22.1 ESE 19 22 1019.5 - 0.0 - Partly cloudy 10 - - - -
21/02:00am 22.0 ESE 19 21 1019.7 - 0.0 - - 10 - - - -
21/01:30am 22.5 ESE 21 26 1019.9 - 0.0 - Partly cloudy 10 - - - -
21/01:00am 22.4 ESE 21 26 1020.1 - 0.0 - Partly cloudy 10 - - - -
21/12:30am 22.6 ESE 23 27 1020.4 - 0.0 - Partly cloudy 10 - - - -
21/12:00am 22.7 ESE 24 29 1020.4 - 0.0 - Mostly clear 10 - - - -
 
Date/Time
EST
Temp

°C
Wind Pressure Rain
since 9am
mm
Weather Cloud Vis
km
Sea
Height
m
Swell
Dir
 
Speed
knots
Gust
knots
hPa Trend Height
m
Period
s
Dir
20/11:30pm 22.5 ESE 25 30 1021.0 - 0.0 - Partly cloudy 10 - - - -
20/11:00pm 22.4 ESE 24 30 1021.5 - 0.0 - Partly cloudy 10 - - - -
20/10:30pm 22.7 ESE 23 27 1021.6 - 0.0 - Partly cloudy 10 - - - -
20/10:00pm 22.3 SE 21 25 1021.8 - 0.0 - Partly cloudy 10 - - - -
20/09:30pm 21.6 SE 18 22 1022.0 - 0.0 - Partly cloudy 10 - - - -
20/09:00pm 21.7 SE 26 32 1021.5 - 0.0 - Cloudy 10 - - - -
20/08:41pm 21.7 ESE 33 36 1021.4 - 0.0 - Partly cloudy 10 - - - -
20/08:39pm 22.5 SE 21 34 1021.3 - 0.0 - Partly cloudy 10 - - - -
20/08:30pm 22.6 SE 22 25 1021.5 - 0.0 - Partly cloudy 10 - - - -
20/08:00pm 22.7 SE 22 25 1021.2 - 0.0 - Partly cloudy 10 - - - -
20/07:30pm 22.5 SE 21 25 1020.9 - 0.0 - Partly cloudy 10 - - - -
20/07:00pm 22.5 SE 21 26 1020.6 - 0.0 - Partly cloudy 10 - - - -
20/06:30pm 22.6 SE 21 24 1020.4 - 0.0 - Partly cloudy 10 - - - -
20/06:00pm 22.7 SE 22 26 1019.6 - 0.0 - Mostly cloudy 10 - - - -
20/05:30pm 22.8 SE 23 27 1019.2 - 0.0 - Partly cloudy 10 - - - -
20/05:00pm 23.0 SE 24 27 1018.7 - 0.0 - Partly cloudy 10 - - - -
20/04:30pm 23.3 SE 22 25 1018.5 - 0.0 - Partly cloudy 10 - - - -
20/04:00pm 22.9 ESE 22 27 1018.3 - 0.0 - Partly cloudy 10 - - - -
20/03:30pm 23.7 SE 23 26 1018.5 - 0.0 - Partly cloudy 10 - - - -
20/03:00pm 24.0 SE 22 27 1018.5 - 0.0 - Cloudy 10 - - - -
20/02:30pm 23.8 SE 23 27 1018.9 - 0.0 - Partly cloudy 10 - - - -
20/02:00pm 24.3 SE 21 25 1019.5 - 0.0 - Partly cloudy 10 - - - -
20/01:30pm 23.7 SE 21 27 1019.8 - 0.0 - Partly cloudy 10 - - - -
20/01:00pm 24.6 SE 21 24 1020.3 - 0.0 - Partly cloudy 10 - - - -
20/12:30pm 24.4 SE 19 24 1020.8 - 0.0 - Partly cloudy 10 - - - -
20/12:00pm 25.2 SE 21 25 1020.9 - 0.0 - Cloudy 10 - - - -
20/11:30am 23.4 SE 26 30 1021.5 - 0.0 - Partly cloudy 10 - - - -
20/11:00am 24.7 SE 24 27 1021.7 - 0.0 - Partly cloudy 10 - - - -
20/10:30am 23.9 SE 23 29 1022.1 - 0.0 - Partly cloudy 10 - - - -
20/10:00am 24.0 SE 21 26 1022.3 - 0.0 - Partly cloudy 10 - - - -
20/09:30am 22.3 SE 23 28 1022.7 - 0.0 - Partly cloudy 10 - - - -
20/09:00am 23.8 SE 22 25 1022.5 - 0.0 - Mostly cloudy 10 - - - -
20/08:30am 24.5 SE 24 27 1022.4 - 0.0 - Partly cloudy 10 - - - -
20/08:00am 23.3 SE 23 27 1022.2 - 0.0 - Partly cloudy 10 - - - -
20/07:30am 23.0 SE 23 28 1022.1 - 0.0 - Partly cloudy 10 - - - -
20/07:00am 23.6 SE 23 26 1021.6 - 0.0 - - 10 - - - -
20/06:30am 23.0 SE 23 28 1021.4 - 0.0 - - 10 - - - -
20/06:00am 22.5 SE 24 27 1020.9 - 0.0 - Partly cloudy 10 - - - -
20/05:30am 22.2 ESE 24 29 1020.8 - 0.0 - Partly cloudy 10 - - - -
20/05:00am 22.2 SE 25 30 1020.6 - 0.0 - Partly cloudy 10 - - - -
20/04:30am 22.2 SE 23 28 1020.4 - 0.0 - Partly cloudy 10 - - - -
20/04:00am 22.3 SE 20 23 1020.2 - 0.0 - Partly cloudy 10 - - - -
20/03:30am 22.4 ESE 21 27 1020.0 - 0.0 - Partly cloudy 10 - - - -
20/03:00am 22.2 SE 23 27 1019.7 - 0.0 - Cloudy 10 - - - -
20/02:30am 22.1 SE 21 25 1019.9 - 0.0 - Partly cloudy 10 - - - -
20/02:00am 22.0 ESE 20 24 1020.0 - 0.0 - - 10 - - - -
20/01:30am 22.0 ESE 21 26 1020.2 - 0.0 - - 10 - - - -
20/01:00am 22.1 ESE 20 23 1020.6 - 0.0 - - 10 - - - -
20/12:30am 22.1 ESE 21 27 1021.2 - 0.0 - - 10 - - - -
20/12:00am 22.3 ESE 22 27 1021.2 - 0.0 - - 10 - - - -

Other Formats:

Comma delimited format used in spreadsheet applications
http://www.bom.gov.au/fwo/IDQ60701/IDQ60701.94368.axf

JavaScript Object Notation format (JSON) in row-major order
http://www.bom.gov.au/fwo/IDQ60701/IDQ60701.94368.json